createdAt,value
2022-12-01T00:01:34.849Z,81.60
2022-12-01T00:04:02.746Z,81.50
2022-12-01T00:06:30.729Z,81.91
2022-12-01T00:09:20.010Z,81.39
2022-12-01T00:11:48.943Z,80.89
2022-12-01T00:14:17.364Z,81.25
2022-12-01T00:16:45.649Z,81.10
2022-12-01T00:19:13.648Z,81.51
2022-12-01T00:21:41.494Z,81.82
2022-12-01T00:24:11.885Z,81.67
2022-12-01T00:26:40.011Z,81.90
2022-12-01T00:29:09.571Z,81.44
2022-12-01T00:31:37.878Z,81.38
2022-12-01T00:34:11.019Z,80.39
2022-12-01T00:36:39.538Z,81.69
2022-12-01T00:39:08.594Z,80.47
2022-12-01T00:41:36.564Z,80.39
2022-12-01T00:44:05.205Z,80.02
2022-12-01T00:46:33.254Z,80.27
2022-12-01T00:49:01.310Z,80.15
2022-12-01T00:51:29.266Z,80.63
2022-12-01T00:53:57.843Z,80.93
2022-12-01T00:56:25.754Z,81.13
2022-12-01T00:58:53.672Z,81.18
2022-12-01T01:01:21.683Z,80.66
2022-12-01T01:03:49.599Z,80.93
2022-12-01T01:06:17.537Z,81.20
2022-12-01T01:08:46.484Z,81.22
2022-12-01T01:11:14.466Z,81.21
2022-12-01T01:13:42.494Z,80.96
2022-12-01T01:16:17.041Z,81.47
2022-12-01T01:18:45.245Z,81.85
2022-12-01T01:21:18.514Z,81.95
2022-12-01T01:23:47.812Z,81.83
2022-12-01T01:26:20.511Z,81.87
2022-12-01T01:28:50.362Z,81.24
2022-12-01T01:31:23.063Z,80.60
2022-12-01T01:33:51.571Z,81.05
2022-12-01T01:36:19.712Z,81.10
2022-12-01T01:38:51.438Z,80.90
2022-12-01T01:41:20.373Z,80.64
2022-12-01T01:43:56.707Z,81.28
2022-12-01T01:46:32.432Z,81.30
2022-12-01T01:49:05.806Z,81.63
2022-12-01T01:51:46.610Z,81.48
2022-12-01T01:54:33.582Z,81.50
2022-12-01T01:57:04.739Z,81.64
2022-12-01T01:59:39.628Z,81.92
2022-12-01T02:02:10.846Z,81.24
2022-12-01T02:04:49.180Z,81.38
2022-12-01T02:07:19.540Z,81.73
2022-12-01T02:09:47.673Z,81.26
2022-12-01T02:12:39.622Z,80.60
2022-12-01T02:15:42.344Z,80.69
2022-12-01T02:18:13.283Z,80.29
2022-12-01T02:21:30.742Z,80.87
2022-12-01T02:24:39.676Z,80.41
2022-12-01T02:27:34.887Z,80.86
2022-12-01T02:30:13.869Z,80.72
2022-12-01T02:32:59.581Z,80.53
2022-12-01T02:35:47.062Z,81.32
2022-12-01T02:38:30.934Z,82.03
2022-12-01T02:41:12.583Z,81.80
2022-12-01T02:43:54.231Z,81.02
2022-12-01T02:46:35.637Z,80.81
2022-12-01T02:49:12.046Z,80.39
2022-12-01T02:51:44.646Z,81.07
2022-12-01T02:54:15.044Z,81.65
2022-12-01T02:56:45.879Z,81.59
2022-12-01T02:59:15.262Z,81.18
2022-12-01T03:02:02.035Z,80.82
2022-12-01T03:04:47.931Z,80.56
2022-12-01T03:07:49.706Z,81.14
2022-12-01T03:10:38.739Z,81.61
2022-12-01T03:13:41.882Z,82.29
2022-12-01T03:16:18.325Z,82.00
2022-12-01T03:19:06.395Z,81.33
2022-12-01T03:22:23.243Z,81.12
2022-12-01T03:24:55.122Z,81.30
2022-12-01T03:27:29.694Z,81.27
2022-12-01T03:30:01.207Z,81.66
2022-12-01T03:32:46.523Z,81.37
2022-12-01T03:35:33.285Z,80.91
2022-12-01T03:38:11.551Z,81.14
2022-12-01T03:40:41.397Z,82.40
2022-12-01T03:43:17.873Z,82.20
2022-12-01T03:46:24.668Z,81.64
2022-12-01T03:48:54.273Z,81.18
2022-12-01T03:51:39.705Z,80.83
2022-12-01T03:54:26.966Z,80.75
2022-12-01T03:57:05.413Z,81.04
2022-12-01T03:59:36.313Z,81.03
2022-12-01T04:02:07.743Z,81.24
2022-12-01T04:04:35.908Z,81.55
2022-12-01T04:07:04.077Z,81.69
2022-12-01T04:09:31.971Z,82.45
2022-12-01T04:12:18.777Z,82.83
2022-12-01T04:14:46.685Z,82.69
2022-12-01T04:17:14.539Z,83.23
2022-12-01T04:19:42.425Z,82.93
2022-12-01T04:22:10.273Z,82.69
2022-12-01T04:24:38.131Z,82.18
2022-12-01T04:27:06.016Z,82.02
2022-12-01T04:29:33.986Z,81.90
2022-12-01T04:32:02.020Z,82.30
2022-12-01T04:34:29.877Z,82.39
2022-12-01T04:36:57.742Z,82.59
2022-12-01T04:39:25.677Z,82.34
2022-12-01T04:41:53.533Z,82.77
2022-12-01T04:44:21.457Z,82.34
2022-12-01T04:46:52.328Z,82.54
2022-12-01T04:49:21.927Z,82.49
2022-12-01T04:51:50.044Z,82.40
2022-12-01T04:54:18.575Z,82.39
2022-12-01T04:56:46.551Z,82.49
2022-12-01T04:59:14.419Z,82.25
2022-12-01T05:01:43.144Z,82.13
2022-12-01T05:04:13.477Z,82.24
2022-12-01T05:06:41.693Z,82.47
2022-12-01T05:09:17.212Z,82.46
2022-12-01T05:11:45.964Z,82.36
2022-12-01T05:14:13.934Z,82.45
2022-12-01T05:16:41.898Z,82.81
2022-12-01T05:19:28.569Z,83.16
2022-12-01T05:21:56.432Z,83.04
2022-12-01T05:24:24.275Z,82.55
2022-12-01T05:26:52.119Z,82.78
2022-12-01T05:29:19.958Z,82.38
2022-12-01T05:31:48.991Z,82.63
2022-12-01T05:34:16.991Z,82.55
2022-12-01T05:36:44.809Z,82.84
2022-12-01T05:39:12.679Z,82.66
2022-12-01T05:41:40.507Z,82.52
2022-12-01T05:44:08.532Z,82.66
2022-12-01T05:46:36.406Z,82.43
2022-12-01T05:49:05.730Z,82.33
2022-12-01T05:51:33.637Z,82.44
2022-12-01T05:54:01.581Z,82.75
2022-12-01T05:56:29.494Z,83.21
2022-12-01T05:58:57.352Z,83.25
2022-12-01T06:01:25.309Z,82.76
2022-12-01T06:03:54.217Z,82.23
2022-12-01T06:06:22.109Z,81.89
2022-12-01T06:08:49.975Z,83.10
2022-12-01T06:11:17.999Z,83.44
2022-12-01T06:13:45.903Z,82.67
2022-12-01T06:16:13.887Z,82.75
2022-12-01T06:18:41.869Z,82.38
2022-12-01T06:21:09.818Z,82.45
2022-12-01T06:23:38.610Z,82.46
2022-12-01T06:26:06.437Z,82.38
2022-12-01T06:28:34.757Z,82.32
2022-12-01T06:31:03.769Z,82.18
2022-12-01T06:33:32.475Z,82.18
2022-12-01T06:36:07.268Z,81.55
2022-12-01T06:38:37.032Z,81.16
2022-12-01T06:41:08.665Z,81.09
2022-12-01T06:43:38.186Z,81.93
2022-12-01T06:46:06.404Z,81.30
2022-12-01T06:48:37.295Z,81.01
2022-12-01T06:51:05.393Z,81.43
2022-12-01T06:53:33.233Z,81.59
2022-12-01T06:56:03.510Z,82.33
2022-12-01T06:58:31.914Z,81.97
2022-12-01T07:01:00.737Z,81.97
2022-12-01T07:03:28.675Z,82.04
2022-12-01T07:05:59.117Z,81.43
2022-12-01T07:08:29.616Z,81.57
2022-12-01T07:11:07.543Z,81.16
2022-12-01T07:13:36.291Z,80.50
2022-12-01T07:16:05.813Z,79.80
2022-12-01T07:18:35.004Z,79.82
2022-12-01T07:21:11.365Z,79.81
2022-12-01T07:23:39.953Z,79.67
2022-12-01T07:26:15.611Z,79.39
2022-12-01T07:28:44.820Z,79.13
2022-12-01T07:31:17.338Z,78.97
2022-12-01T07:33:45.355Z,79.72
2022-12-01T07:36:14.642Z,79.48
2022-12-01T07:38:42.956Z,79.62
2022-12-01T07:41:16.829Z,79.16
2022-12-01T07:43:48.291Z,79.04
2022-12-01T07:46:23.308Z,79.41
2022-12-01T07:48:54.222Z,79.66
2022-12-01T07:51:24.360Z,79.23
2022-12-01T07:53:54.239Z,79.19
2022-12-01T07:56:23.262Z,79.07
2022-12-01T07:58:51.360Z,78.72
2022-12-01T08:01:22.166Z,78.91
2022-12-01T08:03:54.288Z,79.05
2022-12-01T08:06:23.833Z,79.21
2022-12-01T08:08:52.357Z,79.09
2022-12-01T08:11:26.717Z,78.06
2022-12-01T08:13:54.750Z,78.18
2022-12-01T08:16:24.478Z,78.15
2022-12-01T08:18:53.251Z,78.58
2022-12-01T08:21:24.030Z,78.56
2022-12-01T08:23:57.014Z,77.89
2022-12-01T08:26:26.219Z,78.37
2022-12-01T08:28:54.429Z,78.62
2022-12-01T08:31:27.247Z,78.46
2022-12-01T08:33:55.576Z,79.29
2022-12-01T08:36:24.497Z,79.67
2022-12-01T08:38:55.650Z,79.52
2022-12-01T08:41:24.588Z,79.76
2022-12-01T08:44:01.104Z,79.92
2022-12-01T08:46:34.714Z,79.81
2022-12-01T08:49:05.580Z,79.85
2022-12-01T08:51:33.886Z,80.07
2022-12-01T08:54:02.393Z,80.24
2022-12-01T08:56:41.601Z,79.32
2022-12-01T08:59:10.108Z,79.40
2022-12-01T09:01:51.956Z,79.06
2022-12-01T09:04:23.878Z,78.76
2022-12-01T09:06:54.570Z,78.70
2022-12-01T09:09:28.708Z,78.37
2022-12-01T09:11:58.124Z,79.14
2022-12-01T09:14:26.060Z,79.23
2022-12-01T09:16:54.194Z,78.53
2022-12-01T09:19:25.012Z,78.93
2022-12-01T09:21:53.395Z,79.27
2022-12-01T09:24:21.397Z,80.06
2022-12-01T09:26:49.507Z,79.56
2022-12-01T09:29:17.418Z,79.10
2022-12-01T09:31:45.386Z,78.82
2022-12-01T09:34:18.194Z,78.00
2022-12-01T09:36:47.750Z,77.39
2022-12-01T09:39:19.181Z,77.41
2022-12-01T09:42:08.239Z,77.19
2022-12-01T09:44:48.094Z,78.34
2022-12-01T09:47:29.872Z,79.88
2022-12-01T09:50:14.751Z,80.13
2022-12-01T09:53:07.605Z,78.77
2022-12-01T09:55:36.153Z,77.56
2022-12-01T09:58:05.578Z,76.91
2022-12-01T10:00:40.210Z,75.57
2022-12-01T10:03:46.405Z,75.43
2022-12-01T10:06:29.307Z,73.97
2022-12-01T10:09:09.679Z,73.85
2022-12-01T10:11:45.158Z,73.45
2022-12-01T10:14:20.757Z,73.74
2022-12-01T10:17:30.542Z,75.45
2022-12-01T10:20:13.915Z,75.23
2022-12-01T10:23:15.144Z,75.56
2022-12-01T10:26:03.717Z,75.19
2022-12-01T10:29:23.167Z,74.73
2022-12-01T10:31:58.179Z,76.29
2022-12-01T10:34:34.215Z,76.30
2022-12-01T10:37:02.353Z,75.21
2022-12-01T10:39:46.474Z,75.50
2022-12-01T10:42:46.283Z,75.48
2022-12-01T10:45:26.591Z,75.19
2022-12-01T10:48:21.748Z,76.19
2022-12-01T10:50:54.076Z,76.39
2022-12-01T10:53:30.426Z,76.93
2022-12-01T10:56:14.055Z,76.21
2022-12-01T10:58:58.197Z,76.70
2022-12-01T11:01:35.639Z,75.90
2022-12-01T11:04:24.904Z,76.13
2022-12-01T11:06:53.688Z,76.32
2022-12-01T11:09:28.155Z,76.01
2022-12-01T11:12:02.879Z,75.70
2022-12-01T11:14:45.975Z,75.79
2022-12-01T11:17:26.171Z,76.07
2022-12-01T11:19:54.322Z,76.96
2022-12-01T11:22:28.898Z,77.20
2022-12-01T11:25:00.966Z,77.18
2022-12-01T11:27:44.327Z,77.35
2022-12-01T11:30:32.750Z,76.51
2022-12-01T11:33:04.157Z,77.47
2022-12-01T11:35:36.211Z,77.08
2022-12-01T11:38:28.719Z,77.36
2022-12-01T11:40:57.109Z,77.73
2022-12-01T11:43:38.349Z,77.35
2022-12-01T11:46:09.091Z,77.75
2022-12-01T11:48:36.966Z,77.67
2022-12-01T11:51:24.387Z,77.18
2022-12-01T11:54:18.861Z,77.20
2022-12-01T11:56:56.113Z,77.47
2022-12-01T11:59:32.345Z,77.58
2022-12-01T12:02:47.825Z,77.95
2022-12-01T12:06:31.959Z,78.13
2022-12-01T12:09:39.047Z,77.96
2022-12-01T12:12:09.630Z,77.82
2022-12-01T12:14:48.406Z,77.59
2022-12-01T12:17:57.830Z,77.71
2022-12-01T12:20:44.888Z,78.20
2022-12-01T12:23:35.405Z,77.76
2022-12-01T12:26:19.003Z,77.47
2022-12-01T12:29:10.695Z,77.31
2022-12-01T12:31:50.523Z,77.77
2022-12-01T12:34:36.989Z,78.07
2022-12-01T12:37:37.178Z,77.95
2022-12-01T12:40:28.523Z,78.38
2022-12-01T12:43:20.035Z,79.60
2022-12-01T12:46:07.294Z,79.32
2022-12-01T12:49:19.295Z,79.22
2022-12-01T12:52:08.081Z,78.16
2022-12-01T12:54:52.264Z,77.77
2022-12-01T12:57:32.886Z,78.08
2022-12-01T13:00:17.027Z,76.66
2022-12-01T13:03:11.862Z,77.79
2022-12-01T13:06:06.809Z,76.60
2022-12-01T13:08:52.103Z,77.77
2022-12-01T13:11:44.471Z,77.91
2022-12-01T13:14:34.449Z,76.58
2022-12-01T13:17:39.038Z,76.05
2022-12-01T13:20:15.266Z,77.01
2022-12-01T13:22:43.470Z,76.54
2022-12-01T13:25:20.109Z,75.94
2022-12-01T13:27:50.636Z,76.88
2022-12-01T13:30:25.275Z,77.16
2022-12-01T13:33:05.324Z,76.62
2022-12-01T13:35:39.166Z,76.39
2022-12-01T13:38:24.876Z,77.02
2022-12-01T13:41:17.950Z,75.89
2022-12-01T13:43:59.408Z,75.40
2022-12-01T13:46:33.006Z,76.39
2022-12-01T13:49:03.706Z,76.12
2022-12-01T13:52:16.403Z,76.29
2022-12-01T13:55:09.740Z,76.82
2022-12-01T13:57:47.699Z,78.23
2022-12-01T14:00:32.057Z,78.70
2022-12-01T14:03:12.302Z,78.57
2022-12-01T14:05:40.189Z,79.17
2022-12-01T14:08:33.214Z,79.86
2022-12-01T14:11:17.271Z,79.56
2022-12-01T14:14:25.943Z,80.23
2022-12-01T14:17:02.619Z,81.03
2022-12-01T14:19:42.671Z,80.78
2022-12-01T14:22:37.201Z,80.44
2022-12-01T14:25:21.130Z,80.66
2022-12-01T14:28:00.711Z,81.07
2022-12-01T14:30:46.763Z,81.01
2022-12-01T14:33:39.829Z,81.82
2022-12-01T14:36:23.026Z,82.01
2022-12-01T14:38:59.765Z,81.72
2022-12-01T14:41:52.965Z,81.98
2022-12-01T14:44:34.881Z,82.32
2022-12-01T14:47:12.192Z,82.36
2022-12-01T14:50:01.437Z,81.85
2022-12-01T14:52:29.247Z,81.81
2022-12-01T14:55:02.653Z,81.83
2022-12-01T14:57:46.100Z,81.89
2022-12-01T15:00:23.767Z,81.83
2022-12-01T15:03:00.037Z,81.10
2022-12-01T15:05:37.662Z,79.06
2022-12-01T15:08:49.169Z,78.60
2022-12-01T15:11:25.955Z,79.79
2022-12-01T15:13:56.806Z,79.99
2022-12-01T15:16:35.368Z,80.85
2022-12-01T15:19:22.597Z,80.37
2022-12-01T15:21:51.601Z,79.61
2022-12-01T15:24:28.177Z,78.70
2022-12-01T15:27:03.486Z,77.74
2022-12-01T15:29:46.948Z,76.97
2022-12-01T15:32:21.037Z,76.93
2022-12-01T15:34:54.443Z,76.57
2022-12-01T15:37:26.106Z,76.01
2022-12-01T15:43:14.313Z,76.37
2022-12-01T15:46:01.721Z,76.23
2022-12-01T15:48:36.293Z,76.98
2022-12-01T15:51:16.169Z,76.57
2022-12-01T15:53:59.703Z,77.11
2022-12-01T15:56:36.175Z,76.43
2022-12-01T15:59:25.940Z,76.44
2022-12-01T16:01:54.634Z,75.27
2022-12-01T16:04:29.498Z,75.24
2022-12-01T16:07:10.248Z,75.19
2022-12-01T16:09:59.356Z,75.64
2022-12-01T16:12:33.887Z,75.33
2022-12-01T16:15:03.212Z,74.91
2022-12-01T16:17:52.543Z,75.35
2022-12-01T16:20:32.373Z,75.29
2022-12-01T16:23:09.463Z,75.80
2022-12-01T16:25:44.451Z,75.55
2022-12-01T16:28:30.832Z,74.95
2022-12-01T16:30:59.116Z,74.72
2022-12-01T16:33:28.986Z,75.36
2022-12-01T16:36:00.177Z,75.19
2022-12-01T16:38:28.996Z,74.98
2022-12-01T16:41:00.399Z,75.03
2022-12-01T16:43:29.598Z,74.65
2022-12-01T16:46:03.980Z,74.77
2022-12-01T16:48:32.216Z,74.93
2022-12-01T16:51:04.632Z,74.69
2022-12-01T16:53:32.524Z,74.87
2022-12-01T16:56:03.306Z,74.36
2022-12-01T16:58:31.262Z,74.62
2022-12-01T17:00:59.702Z,75.35
2022-12-01T17:03:28.435Z,75.60
2022-12-01T17:05:59.558Z,75.13
2022-12-01T17:08:28.198Z,74.96
2022-12-01T17:10:56.352Z,74.66
2022-12-01T17:13:24.368Z,74.51
2022-12-01T17:15:54.778Z,74.63
2022-12-01T17:18:24.021Z,74.89
2022-12-01T17:21:10.233Z,75.28
2022-12-01T17:23:39.864Z,75.53
2022-12-01T17:26:17.148Z,75.23
2022-12-01T17:28:45.228Z,75.39
2022-12-01T17:31:13.808Z,74.88
2022-12-01T17:33:41.741Z,74.19
2022-12-01T17:36:15.088Z,75.30
2022-12-01T17:38:46.312Z,75.19
2022-12-01T17:41:20.719Z,75.06
2022-12-01T17:43:48.982Z,75.35
2022-12-01T17:46:17.506Z,74.75
2022-12-01T17:48:46.786Z,75.14
2022-12-01T17:51:15.416Z,74.97
2022-12-01T17:53:43.304Z,74.64
2022-12-01T17:56:14.769Z,74.40
2022-12-01T17:58:42.910Z,74.16
2022-12-01T18:01:17.420Z,74.65
2022-12-01T18:03:46.680Z,74.62
2022-12-01T18:06:16.720Z,74.53
2022-12-01T18:08:44.910Z,74.70
2022-12-01T18:11:16.341Z,74.94
2022-12-01T18:13:47.636Z,74.44
2022-12-01T18:16:23.502Z,74.65
2022-12-01T18:18:52.027Z,74.38
2022-12-01T18:21:22.890Z,73.77
2022-12-01T18:24:02.895Z,74.06
2022-12-01T18:26:35.923Z,73.65
2022-12-01T18:29:07.067Z,73.22
2022-12-01T18:31:35.968Z,73.55
2022-12-01T18:34:06.893Z,74.04
2022-12-01T18:36:39.151Z,73.90
2022-12-01T18:39:09.392Z,73.72
2022-12-01T18:41:37.744Z,73.63
2022-12-01T18:44:06.103Z,72.92
2022-12-01T18:46:34.259Z,73.10
2022-12-01T18:49:02.995Z,72.37
2022-12-01T18:51:34.843Z,72.98
2022-12-01T18:54:05.543Z,72.81
2022-12-01T18:56:34.943Z,72.59
2022-12-01T18:59:06.393Z,72.68
2022-12-01T19:01:38.302Z,72.39
2022-12-01T19:04:07.654Z,72.75
2022-12-01T19:06:38.925Z,73.14
2022-12-01T19:09:09.905Z,72.92
2022-12-01T19:11:40.478Z,72.87
2022-12-01T19:14:17.257Z,72.34
2022-12-01T19:16:46.571Z,72.14
2022-12-01T19:19:14.613Z,72.41
2022-12-01T19:21:45.098Z,72.48
2022-12-01T19:24:13.630Z,72.71
2022-12-01T19:26:41.655Z,72.32
2022-12-01T19:29:09.594Z,71.98
2022-12-01T19:31:37.780Z,71.83
2022-12-01T19:34:06.074Z,72.70
2022-12-01T19:36:33.959Z,72.86
2022-12-01T19:39:04.404Z,72.55
2022-12-01T19:41:38.498Z,72.46
2022-12-01T19:44:06.670Z,73.25
2022-12-01T19:46:34.678Z,73.51
2022-12-01T19:49:03.918Z,74.27
2022-12-01T19:51:36.935Z,73.90
2022-12-01T19:54:07.028Z,73.47
2022-12-01T19:56:34.861Z,73.28
2022-12-01T19:59:02.911Z,73.10
2022-12-01T20:01:30.893Z,73.34
2022-12-01T20:03:59.402Z,73.40
2022-12-01T20:06:30.412Z,73.45
2022-12-01T20:09:02.309Z,72.79
2022-12-01T20:11:32.681Z,72.53
2022-12-01T20:14:03.102Z,72.92
2022-12-01T20:16:32.162Z,73.42
2022-12-01T20:19:03.157Z,73.32
2022-12-01T20:21:35.231Z,73.49
2022-12-01T20:24:07.051Z,73.56
2022-12-01T20:26:46.385Z,74.35
2022-12-01T20:29:27.202Z,75.41
2022-12-01T20:31:58.288Z,74.75
2022-12-01T20:34:31.700Z,74.35
2022-12-01T20:37:00.998Z,73.90
2022-12-01T20:39:31.888Z,73.63
2022-12-01T20:42:00.124Z,74.07
2022-12-01T20:44:29.188Z,73.97
2022-12-01T20:46:57.814Z,73.80
2022-12-01T20:49:26.221Z,74.32
2022-12-01T20:51:54.769Z,74.77
2022-12-01T20:54:30.571Z,74.78
2022-12-01T20:56:59.102Z,75.01
2022-12-01T20:59:27.502Z,74.96
2022-12-01T21:01:55.989Z,74.87
2022-12-01T21:04:24.288Z,74.70
2022-12-01T21:06:56.527Z,74.13
2022-12-01T21:09:26.074Z,74.47
2022-12-01T21:12:13.189Z,75.23
2022-12-01T21:15:12.290Z,75.77
2022-12-01T21:17:46.353Z,76.16
2022-12-01T21:20:25.173Z,76.02
2022-12-01T21:22:53.599Z,76.47
2022-12-01T21:25:25.552Z,76.33
2022-12-01T21:27:57.993Z,76.09
2022-12-01T21:30:26.310Z,75.87
2022-12-01T21:33:00.197Z,76.41
2022-12-01T21:35:28.087Z,76.51
2022-12-01T21:38:04.386Z,76.54
2022-12-01T21:40:32.370Z,75.90
2022-12-01T21:43:19.360Z,76.01
2022-12-01T21:46:00.454Z,76.16
2022-12-01T21:48:35.641Z,76.39
2022-12-01T21:51:19.758Z,75.59
2022-12-01T21:53:48.696Z,75.23
2022-12-01T21:56:23.815Z,75.58
2022-12-01T21:58:53.304Z,75.56
2022-12-01T22:01:30.491Z,76.04
2022-12-01T22:04:02.446Z,76.47
2022-12-01T22:06:44.498Z,76.75
2022-12-01T22:09:27.595Z,76.78
2022-12-01T22:12:29.902Z,76.60
2022-12-01T22:15:01.563Z,76.66
2022-12-01T22:17:29.789Z,76.42
2022-12-01T22:20:02.317Z,76.39
2022-12-01T22:22:32.732Z,76.26
2022-12-01T22:25:26.211Z,76.12
2022-12-01T22:27:54.715Z,76.33
2022-12-01T22:30:24.119Z,76.11
2022-12-01T22:33:00.298Z,75.94
2022-12-01T22:35:45.316Z,75.85
2022-12-01T22:38:45.829Z,76.23
2022-12-01T22:41:16.635Z,76.77
2022-12-01T22:43:51.412Z,77.44
2022-12-01T22:46:34.827Z,77.07
2022-12-01T22:49:23.686Z,76.82
2022-12-01T22:52:17.258Z,77.06
2022-12-01T22:54:49.233Z,76.85
2022-12-01T22:57:33.308Z,77.10
2022-12-01T23:00:22.013Z,77.52
2022-12-01T23:02:55.471Z,77.20
2022-12-01T23:05:27.255Z,76.38
2022-12-01T23:07:56.611Z,76.17
2022-12-01T23:10:30.330Z,76.12
2022-12-01T23:13:08.751Z,76.74
2022-12-01T23:15:45.212Z,76.56
2022-12-01T23:18:21.123Z,76.73
2022-12-01T23:20:58.617Z,76.77
2022-12-01T23:23:33.161Z,76.45
2022-12-01T23:26:04.557Z,76.47
2022-12-01T23:28:36.764Z,76.94
2022-12-01T23:31:04.757Z,76.64
2022-12-01T23:33:34.175Z,76.64
2022-12-01T23:36:18.335Z,77.18
2022-12-01T23:38:51.374Z,77.05
2022-12-01T23:41:32.626Z,76.86
2022-12-01T23:44:08.851Z,76.87
2022-12-01T23:46:37.037Z,78.11
2022-12-01T23:49:12.720Z,78.25
2022-12-01T23:51:49.881Z,78.12
2022-12-01T23:54:26.077Z,78.59
2022-12-01T23:56:58.379Z,79.13
2022-12-01T23:59:28.326Z,79.03
